Time;durP1;ratioP1;P1;durP2;ratioP2;P2;SDS_P1;SDS_P2;PMS_P1;PMS_P2;Temp;Humidity;BMP_temperature;BMP_pressure;BME280_temperature;BME280_humidity;BME280_pressure;Samples;Min_cycle;Max_cycle;Signal;HPM_P1;HPM_P2
2021/03/22 00:00:20;;;;;;;8.88;2.90;;;2.90;99.90;;;;;;5008680;28;20080;-76
2021/03/22 00:02:45;;;;;;;7.95;3.25;;;2.80;99.90;;;;;;5011008;28;20049;-76
2021/03/22 00:05:11;;;;;;;30.98;14.52;;;2.80;99.90;;;;;;4999415;28;20029;-74
2021/03/22 00:07:37;;;;;;;35.70;16.80;;;2.80;99.90;;;;;;4989843;28;20038;-73
2021/03/22 00:10:04;;;;;;;19.55;8.13;;;2.70;99.90;;;;;;4997052;28;20033;-74
2021/03/22 00:12:29;;;;;;;10.55;4.82;;;2.50;99.90;;;;;;5010868;28;20037;-73
2021/03/22 00:14:55;;;;;;;12.23;4.15;;;2.50;99.90;;;;;;5005370;28;20530;-74
2021/03/22 00:17:21;;;;;;;8.68;3.72;;;2.60;99.90;;;;;;4990304;28;20030;-73
2021/03/22 00:19:46;;;;;;;10.18;4.50;;;2.70;99.90;;;;;;4989451;28;20479;-73
2021/03/22 00:22:12;;;;;;;9.30;4.63;;;2.60;99.90;;;;;;5007876;28;20460;-73
2021/03/22 00:24:37;;;;;;;11.88;3.88;;;2.60;99.90;;;;;;5007700;28;20488;-74
2021/03/22 00:27:04;;;;;;;8.82;3.45;;;2.60;99.90;;;;;;5006566;28;20084;-73
2021/03/22 00:29:29;;;;;;;11.75;4.28;;;2.50;99.90;;;;;;5007426;28;20034;-73
2021/03/22 00:31:55;;;;;;;8.95;3.63;;;2.50;99.90;;;;;;5005586;28;20494;-73
2021/03/22 00:34:20;;;;;;;20.40;9.75;;;2.50;99.90;;;;;;5007834;28;20068;-74
2021/03/22 00:36:46;;;;;;;27.50;11.75;;;2.40;99.90;;;;;;5005371;28;20034;-73
2021/03/22 00:39:11;;;;;;;34.47;17.20;;;2.40;99.90;;;;;;5004987;28;20038;-74
2021/03/22 00:41:37;;;;;;;13.70;6.82;;;2.40;99.90;;;;;;5006818;28;20064;-73
2021/03/22 00:44:04;;;;;;;13.48;6.53;;;2.40;99.90;;;;;;5006213;28;20140;-74
2021/03/22 00:46:30;;;;;;;12.52;5.93;;;2.30;99.90;;;;;;5006722;28;20113;-74
2021/03/22 00:48:55;;;;;;;11.63;4.90;;;2.30;99.90;;;;;;4994481;28;20124;-73
2021/03/22 00:51:21;;;;;;;9.82;4.60;;;2.20;99.90;;;;;;4985514;28;20116;-73
2021/03/22 00:53:47;;;;;;;15.85;5.95;;;2.20;99.90;;;;;;4996071;28;20143;-73
2021/03/22 00:56:12;;;;;;;17.60;9.90;;;2.20;99.90;;;;;;5006963;28;20048;-74
2021/03/22 00:58:40;;;;;;;30.92;19.88;;;2.20;99.90;;;;;;5004883;28;20438;-73
2021/03/22 01:01:07;;;;;;;23.65;15.13;;;2.00;99.90;;;;;;5007516;28;20041;-76
2021/03/22 01:03:34;;;;;;;13.75;7.72;;;2.10;99.90;;;;;;5004668;28;20499;-77
2021/03/22 01:06:01;;;;;;;14.40;6.63;;;2.10;99.90;;;;;;5005607;28;20081;-76
2021/03/22 01:08:30;;;;;;;8.88;4.70;;;2.00;99.90;;;;;;5004308;28;20034;-73
2021/03/22 01:11:11;;;;;;;7.40;3.92;;;2.00;99.90;;;;;;5007182;28;20107;-76
2021/03/22 01:13:44;;;;;;;6.35;2.75;;;2.00;99.90;;;;;;5006701;28;20042;-75
2021/03/22 01:16:11;;;;;;;6.68;2.90;;;2.10;99.90;;;;;;5008022;28;20473;-76
2021/03/22 01:18:41;;;;;;;6.75;2.53;;;2.00;99.90;;;;;;4999229;28;20142;-73
2021/03/22 01:21:22;;;;;;;6.75;3.28;;;2.00;99.90;;;;;;4987945;28;20411;-75
2021/03/22 01:23:47;;;;;;;8.93;4.10;;;2.00;99.90;;;;;;4991661;28;20092;-76
2021/03/22 01:26:15;;;;;;;8.82;3.65;;;2.00;99.90;;;;;;5007637;28;20034;-73
2021/03/22 01:28:41;;;;;;;5.63;2.47;;;2.00;99.90;;;;;;5005318;28;20026;-74
2021/03/22 01:31:09;;;;;;;6.78;2.75;;;2.00;99.90;;;;;;5008051;28;20065;-73
2021/03/22 01:33:38;;;;;;;7.57;3.00;;;2.00;99.90;;;;;;5006451;28;20487;-73
2021/03/22 01:36:08;;;;;;;6.50;2.30;;;2.00;99.90;;;;;;5008138;28;20026;-74
2021/03/22 01:38:33;;;;;;;5.78;2.35;;;2.00;99.90;;;;;;5005596;28;20044;-74
2021/03/22 01:41:08;;;;;;;7.47;2.75;;;2.00;99.90;;;;;;5006077;28;20034;-73
2021/03/22 01:44:01;;;;;;;6.68;3.00;;;2.00;99.90;;;;;;5007512;28;20034;-76
2021/03/22 01:46:28;;;;;;;5.85;2.63;;;1.80;99.90;;;;;;5007539;28;20463;-73
2021/03/22 01:48:54;;;;;;;8.40;2.33;;;1.90;99.90;;;;;;5003949;28;20045;-73
2021/03/22 01:51:20;;;;;;;5.50;2.38;;;1.90;99.90;;;;;;5007269;28;20451;-73
2021/03/22 01:53:46;;;;;;;5.57;1.90;;;1.80;99.90;;;;;;5005980;28;20088;-74
2021/03/22 01:56:20;;;;;;;6.28;2.47;;;1.80;99.90;;;;;;5004505;28;20033;-74
2021/03/22 01:58:45;;;;;;;6.57;2.85;;;1.80;99.90;;;;;;5004478;28;20620;-74
2021/03/22 02:01:11;;;;;;;8.55;4.25;;;1.80;99.90;;;;;;5006296;28;20029;-73
2021/03/22 02:03:37;;;;;;;6.00;2.80;;;1.70;99.90;;;;;;5007251;28;20040;-73
2021/03/22 02:06:02;;;;;;;4.88;2.08;;;1.70;99.90;;;;;;5007415;28;20057;-73
2021/03/22 02:08:34;;;;;;;5.68;2.50;;;1.70;99.90;;;;;;5007152;28;20041;-73
2021/03/22 02:11:01;;;;;;;6.70;3.17;;;1.70;99.90;;;;;;5007101;28;20026;-74
2021/03/22 02:13:30;;;;;;;7.95;3.03;;;1.70;99.90;;;;;;5005780;28;20042;-73
2021/03/22 02:16:16;;;;;;;5.07;2.33;;;1.70;99.90;;;;;;5007126;28;20308;-73
2021/03/22 02:19:16;;;;;;;6.22;2.38;;;1.80;99.90;;;;;;4974483;28;20061;-76
2021/03/22 02:22:10;;;;;;;5.97;2.17;;;1.70;99.90;;;;;;5004794;28;20034;-73
2021/03/22 02:25:06;;;;;;;6.68;2.53;;;1.60;99.90;;;;;;5006046;28;20050;-76
2021/03/22 02:28:27;;;;;;;4.90;2.10;;;1.60;99.90;;;;;;5005486;28;20515;-76
2021/03/22 02:31:14;;;;;;;6.57;2.85;;;1.60;99.90;;;;;;5006661;28;20483;-74
2021/03/22 02:34:00;;;;;;;8.55;3.78;;;1.60;99.90;;;;;;5001465;28;20049;-76
2021/03/22 02:36:45;;;;;;;7.28;2.72;;;1.60;99.90;;;;;;5006583;28;20928;-76
2021/03/22 02:39:11;;;;;;;5.55;2.63;;;1.50;99.90;;;;;;5004817;28;20074;-76
2021/03/22 02:41:37;;;;;;;6.22;3.00;;;1.50;99.90;;;;;;5004993;28;20372;-76
2021/03/22 02:44:27;;;;;;;5.32;2.45;;;1.40;99.90;;;;;;5006907;28;20062;-75
2021/03/22 02:47:03;;;;;;;4.95;2.40;;;1.50;99.90;;;;;;5005656;28;20525;-75
2021/03/22 02:49:33;;;;;;;7.35;3.00;;;1.50;99.90;;;;;;5003570;28;20480;-76
2021/03/22 02:52:45;;;;;;;4.80;2.03;;;1.40;99.90;;;;;;5005660;28;20042;-76
2021/03/22 02:55:29;;;;;;;6.07;2.50;;;1.40;99.90;;;;;;4988760;28;20041;-76
2021/03/22 02:58:01;;;;;;;6.15;2.88;;;1.40;99.90;;;;;;5005781;28;20603;-76
2021/03/22 03:00:32;;;;;;;5.03;2.45;;;1.30;99.90;;;;;;5004135;28;20396;-73
2021/03/22 03:03:04;;;;;;;6.55;2.50;;;1.10;99.90;;;;;;5004300;28;20030;-76
2021/03/22 03:05:32;;;;;;;5.47;2.83;;;1.20;99.90;;;;;;5005390;28;20041;-76
2021/03/22 03:08:01;;;;;;;8.93;2.85;;;1.20;99.90;;;;;;5004743;28;20085;-76
2021/03/22 03:10:27;;;;;;;7.85;3.30;;;1.20;99.90;;;;;;5004156;28;20042;-75
2021/03/22 03:12:52;;;;;;;7.53;2.97;;;1.10;99.90;;;;;;5005303;28;20034;-76
2021/03/22 03:15:20;;;;;;;6.05;3.00;;;1.20;99.90;;;;;;5005713;28;20038;-76
2021/03/22 03:17:46;;;;;;;7.30;3.53;;;1.20;99.90;;;;;;5002469;28;20129;-76
2021/03/22 03:20:17;;;;;;;8.10;3.38;;;1.10;99.90;;;;;;5005977;28;20423;-76
2021/03/22 03:22:42;;;;;;;5.65;2.88;;;1.20;99.90;;;;;;5003145;28;20269;-75
2021/03/22 03:25:11;;;;;;;5.10;2.58;;;1.10;99.90;;;;;;5005684;28;20038;-76
2021/03/22 03:27:37;;;;;;;6.75;2.65;;;1.10;99.90;;;;;;5003951;28;20037;-76
2021/03/22 03:30:18;;;;;;;7.15;2.90;;;1.00;99.90;;;;;;5006348;28;20522;-76
2021/03/22 03:32:44;;;;;;;9.07;3.08;;;1.10;99.90;;;;;;5004919;28;20022;-73
2021/03/22 03:35:11;;;;;;;7.18;3.10;;;1.00;99.90;;;;;;5006166;28;20040;-72
2021/03/22 03:37:37;;;;;;;8.10;3.25;;;1.00;99.90;;;;;;5004436;28;20048;-73
2021/03/22 03:40:15;;;;;;;8.90;3.70;;;1.00;99.90;;;;;;5005768;28;20094;-73
2021/03/22 03:42:41;;;;;;;7.95;3.47;;;0.90;99.90;;;;;;5005340;28;20057;-76
2021/03/22 03:45:10;;;;;;;8.32;3.88;;;0.90;99.90;;;;;;5004822;28;20053;-76
2021/03/22 03:47:39;;;;;;;9.85;3.78;;;0.90;99.90;;;;;;5005696;28;20029;-76
2021/03/22 03:50:09;;;;;;;9.30;3.75;;;0.80;99.90;;;;;;5004054;28;20065;-76
2021/03/22 03:52:34;;;;;;;13.10;3.65;;;0.80;99.90;;;;;;5006475;28;20041;-76
2021/03/22 03:55:00;;;;;;;11.55;3.80;;;0.80;99.90;;;;;;5009389;28;20556;-76
2021/03/22 03:57:25;;;;;;;9.23;3.63;;;0.80;99.90;;;;;;5009051;28;20612;-76
2021/03/22 03:59:51;;;;;;;10.63;4.20;;;0.70;99.90;;;;;;5006666;28;20034;-76
2021/03/22 04:02:17;;;;;;;7.68;3.80;;;0.80;99.90;;;;;;5008189;28;20475;-76
2021/03/22 04:04:42;;;;;;;8.50;3.88;;;0.70;99.90;;;;;;5008285;28;20046;-75
2021/03/22 04:07:08;;;;;;;11.73;4.32;;;0.80;99.90;;;;;;5009874;28;20094;-76
2021/03/22 04:09:34;;;;;;;8.57;4.10;;;0.80;99.90;;;;;;5008083;28;20042;-76
2021/03/22 04:11:59;;;;;;;8.73;4.15;;;0.80;99.90;;;;;;5009511;28;20457;-76
2021/03/22 04:14:28;;;;;;;8.80;4.25;;;0.80;99.90;;;;;;5007581;28;20049;-73
2021/03/22 04:16:54;;;;;;;9.02;4.03;;;0.70;99.90;;;;;;5009772;28;20030;-73
2021/03/22 04:19:20;;;;;;;10.82;4.68;;;0.80;99.90;;;;;;5006799;28;20054;-73
2021/03/22 04:21:47;;;;;;;15.23;4.93;;;0.80;99.90;;;;;;5008432;28;20479;-73
2021/03/22 04:24:14;;;;;;;10.82;4.40;;;0.90;99.90;;;;;;5006958;28;20041;-73
2021/03/22 04:26:39;;;;;;;8.35;4.72;;;0.90;99.90;;;;;;5008067;28;20034;-73
2021/03/22 04:29:06;;;;;;;7.93;4.30;;;0.90;99.90;;;;;;5008595;28;20396;-73
2021/03/22 04:31:31;;;;;;;11.00;4.35;;;0.80;99.90;;;;;;5007703;28;20021;-73
2021/03/22 04:33:59;;;;;;;11.38;4.22;;;0.80;99.90;;;;;;5008902;28;20452;-74
2021/03/22 04:36:29;;;;;;;9.38;4.00;;;0.80;99.90;;;;;;5005938;28;20113;-76
2021/03/22 04:38:55;;;;;;;8.45;4.05;;;0.80;99.90;;;;;;5006862;28;20489;-75
2021/03/22 04:41:21;;;;;;;9.55;3.90;;;0.80;99.90;;;;;;5006553;28;20038;-73
2021/03/22 04:43:48;;;;;;;10.80;4.63;;;0.70;99.90;;;;;;5008143;28;20045;-73
2021/03/22 04:46:13;;;;;;;12.00;5.25;;;0.70;99.90;;;;;;5005852;28;20421;-73
2021/03/22 04:48:39;;;;;;;10.30;5.53;;;0.70;99.90;;;;;;5005744;28;20478;-73
2021/03/22 04:51:05;;;;;;;14.00;5.45;;;0.60;99.90;;;;;;5003945;28;20038;-73
2021/03/22 04:53:32;;;;;;;15.32;5.38;;;0.60;99.90;;;;;;4999295;28;20392;-73
2021/03/22 04:55:58;;;;;;;10.85;3.83;;;0.60;99.90;;;;;;5003510;28;20030;-73
2021/03/22 04:58:24;;;;;;;19.77;4.97;;;0.60;99.90;;;;;;5005432;28;20038;-73
2021/03/22 05:00:49;;;;;;;10.18;3.92;;;0.60;99.90;;;;;;5003766;28;20034;-73
2021/03/22 05:03:18;;;;;;;11.00;4.32;;;0.60;99.90;;;;;;5004905;28;20044;-73
2021/03/22 05:05:44;;;;;;;14.18;5.05;;;0.60;99.90;;;;;;4994396;28;20074;-73
2021/03/22 05:08:12;;;;;;;11.45;4.85;;;0.60;99.90;;;;;;5003919;28;20041;-73
2021/03/22 05:10:42;;;;;;;16.27;4.53;;;0.60;99.90;;;;;;5004973;28;20067;-76
2021/03/22 05:13:09;;;;;;;11.77;4.35;;;0.60;99.90;;;;;;5004285;28;20407;-76
2021/03/22 05:15:35;;;;;;;13.32;4.78;;;0.60;99.90;;;;;;5006095;28;20033;-76
2021/03/22 05:18:01;;;;;;;11.45;4.70;;;0.60;99.90;;;;;;5005980;28;20475;-73
2021/03/22 05:20:32;;;;;;;15.65;5.25;;;0.50;99.90;;;;;;5005860;28;20071;-73
2021/03/22 05:23:00;;;;;;;14.02;5.28;;;0.50;99.90;;;;;;5005571;28;20033;-73
2021/03/22 05:25:25;;;;;;;11.23;4.10;;;0.50;99.90;;;;;;5006453;28;20034;-73
2021/03/22 05:27:51;;;;;;;15.70;4.88;;;0.40;99.90;;;;;;5007902;28;20053;-73
2021/03/22 05:30:18;;;;;;;11.55;4.95;;;0.40;99.90;;;;;;5005104;28;20095;-73
2021/03/22 05:32:44;;;;;;;14.40;4.93;;;0.40;99.90;;;;;;5007508;28;20046;-73
2021/03/22 05:35:14;;;;;;;11.90;4.90;;;0.40;99.90;;;;;;5006246;28;20022;-73
2021/03/22 05:37:40;;;;;;;14.25;5.15;;;0.40;99.90;;;;;;5006225;28;20120;-73
2021/03/22 05:40:09;;;;;;;19.23;5.30;;;0.40;99.90;;;;;;5004799;28;20026;-73
2021/03/22 05:42:59;;;;;;;15.07;6.00;;;0.40;99.90;;;;;;5006170;28;20046;-73
2021/03/22 05:45:28;;;;;;;9.50;4.05;;;0.40;99.90;;;;;;5005727;28;20132;-75
2021/03/22 05:48:18;;;;;;;13.88;4.63;;;0.40;99.90;;;;;;5008002;28;20479;-76
2021/03/22 05:51:02;;;;;;;12.32;4.85;;;0.40;99.90;;;;;;5003259;28;20382;-76
2021/03/22 05:53:37;;;;;;;10.23;4.38;;;0.40;99.90;;;;;;5005531;28;20034;-75
2021/03/22 05:56:09;;;;;;;10.98;5.43;;;0.30;99.90;;;;;;4986452;28;20437;-76
2021/03/22 05:58:42;;;;;;;16.80;9.10;;;0.40;99.90;;;;;;4986725;28;20077;-75
2021/03/22 06:01:30;;;;;;;12.55;6.47;;;0.40;99.90;;;;;;5004682;28;20049;-76
2021/03/22 06:04:12;;;;;;;21.83;9.35;;;0.40;99.90;;;;;;5006076;28;20554;-76
2021/03/22 06:06:42;;;;;;;17.00;7.57;;;0.40;99.90;;;;;;5004811;28;20117;-73
2021/03/22 06:09:36;;;;;;;22.05;10.10;;;0.40;99.90;;;;;;5005390;28;20034;-73
2021/03/22 06:12:22;;;;;;;20.92;9.32;;;0.40;99.90;;;;;;5000345;28;20067;-73
2021/03/22 06:15:02;;;;;;;17.30;8.65;;;0.40;99.90;;;;;;5005341;28;20503;-76
2021/03/22 06:17:33;;;;;;;18.58;9.32;;;0.50;99.90;;;;;;4999630;28;20037;-76
2021/03/22 06:20:04;;;;;;;18.88;8.63;;;0.50;99.90;;;;;;5004614;28;20065;-76
2021/03/22 06:22:32;;;;;;;18.17;9.05;;;0.50;99.90;;;;;;5011031;28;20041;-73
2021/03/22 06:25:01;;;;;;;22.58;9.55;;;0.60;99.90;;;;;;5015959;28;20030;-73
2021/03/22 06:27:27;;;;;;;22.48;9.57;;;0.60;99.90;;;;;;5006893;28;20077;-75
2021/03/22 06:29:56;;;;;;;19.50;9.73;;;0.60;99.90;;;;;;5011194;28;20037;-76
2021/03/22 06:32:27;;;;;;;23.85;10.02;;;0.70;99.90;;;;;;5010245;28;20034;-75
2021/03/22 06:35:04;;;;;;;22.30;11.23;;;0.80;99.90;;;;;;5009224;28;20554;-76
2021/03/22 06:37:34;;;;;;;35.30;14.48;;;0.80;99.90;;;;;;5007565;28;20049;-75
2021/03/22 06:40:15;;;;;;;26.75;12.57;;;0.90;99.90;;;;;;5014151;28;20033;-76
2021/03/22 06:42:43;;;;;;;32.93;13.67;;;0.90;99.90;;;;;;5010451;28;20045;-76
2021/03/22 06:45:36;;;;;;;27.35;13.30;;;1.00;99.90;;;;;;5010314;28;20205;-73
2021/03/22 06:48:15;;;;;;;30.02;11.82;;;1.00;99.90;;;;;;5005873;28;20363;-76
2021/03/22 06:50:41;;;;;;;25.80;9.75;;;1.00;99.90;;;;;;5010290;28;20140;-75
2021/03/22 06:53:07;;;;;;;19.80;9.27;;;1.10;99.90;;;;;;5007595;28;20148;-75
2021/03/22 06:55:38;;;;;;;23.27;8.52;;;1.20;99.90;;;;;;5002607;28;20388;-75
2021/03/22 06:58:04;;;;;;;19.63;8.40;;;1.20;99.90;;;;;;5005568;28;20038;-76
2021/03/22 07:00:33;;;;;;;23.48;8.15;;;1.30;99.90;;;;;;5006800;28;20038;-76
2021/03/22 07:03:04;;;;;;;18.58;7.82;;;1.40;99.90;;;;;;5008247;28;20025;-73
2021/03/22 07:05:39;;;;;;;22.95;7.10;;;1.40;99.90;;;;;;5003747;28;20376;-71
2021/03/22 07:08:06;;;;;;;31.95;9.68;;;1.40;99.90;;;;;;5006256;28;20532;-74
2021/03/22 07:10:39;;;;;;;21.55;9.05;;;1.50;99.90;;;;;;5010354;28;20056;-74
2021/03/22 07:13:18;;;;;;;27.27;8.63;;;1.60;99.90;;;;;;5003991;28;20068;-74
2021/03/22 07:15:45;;;;;;;25.02;8.15;;;1.70;99.90;;;;;;5005225;28;20088;-74
2021/03/22 07:18:22;;;;;;;19.40;8.15;;;1.80;99.90;;;;;;5007353;28;20610;-74
2021/03/22 07:21:09;;;;;;;21.30;8.45;;;1.80;99.90;;;;;;5003426;28;20025;-74
2021/03/22 07:23:47;;;;;;;24.45;8.38;;;1.90;99.90;;;;;;5004597;28;20053;-71
2021/03/22 07:26:25;;;;;;;18.92;8.10;;;2.00;99.90;;;;;;5009201;28;20131;-74
2021/03/22 07:28:59;;;;;;;22.25;9.15;;;2.20;99.90;;;;;;5007595;28;20153;-73
2021/03/22 07:31:38;;;;;;;21.25;9.40;;;2.30;99.90;;;;;;5009770;28;20290;-74
2021/03/22 07:34:41;;;;;;;19.10;8.43;;;2.40;99.90;;;;;;5012034;28;20035;-73
2021/03/22 07:37:26;;;;;;;22.00;8.48;;;2.40;99.90;;;;;;5011884;28;20501;-73
2021/03/22 07:40:09;;;;;;;20.15;8.25;;;2.50;99.90;;;;;;5004989;28;20376;-74
2021/03/22 07:43:23;;;;;;;19.77;8.23;;;2.60;99.90;;;;;;5012176;28;20426;-73
2021/03/22 07:46:04;;;;;;;25.02;10.05;;;2.70;99.90;;;;;;5005385;28;20140;-74
2021/03/22 07:48:38;;;;;;;16.65;7.75;;;2.80;99.90;;;;;;5012429;28;20042;-74
2021/03/22 07:51:38;;;;;;;16.65;6.88;;;2.90;99.90;;;;;;5004335;28;20129;-74
2021/03/22 07:54:19;;;;;;;13.32;6.47;;;3.00;99.90;;;;;;5012332;28;20045;-73
2021/03/22 07:56:55;;;;;;;13.00;5.43;;;3.10;99.90;;;;;;5009179;28;20530;-74
2021/03/22 07:59:57;;;;;;;11.65;4.60;;;3.10;99.90;;;;;;5020157;28;20033;-74
2021/03/22 08:02:29;;;;;;;11.77;5.45;;;3.10;99.90;;;;;;5011667;28;20037;-74
2021/03/22 08:05:26;;;;;;;11.93;5.13;;;3.10;99.90;;;;;;5017149;28;20041;-74
2021/03/22 08:08:02;;;;;;;12.70;5.70;;;3.30;99.90;;;;;;5020643;28;20076;-74
2021/03/22 08:10:57;;;;;;;14.15;6.63;;;3.50;99.90;;;;;;5016948;28;20773;-74
2021/03/22 08:13:48;;;;;;;17.02;6.07;;;3.60;99.90;;;;;;5011902;28;20027;-74
2021/03/22 08:16:38;;;;;;;15.43;4.88;;;3.80;99.90;;;;;;5008778;28;20069;-74
2021/03/22 08:19:22;;;;;;;16.42;5.65;;;3.90;99.90;;;;;;5015277;28;20502;-74
2021/03/22 08:21:53;;;;;;;14.90;5.95;;;4.20;99.90;;;;;;5010340;28;20029;-73
2021/03/22 08:24:40;;;;;;;15.05;5.97;;;4.40;99.90;;;;;;5011524;28;20057;-73
2021/03/22 08:27:14;;;;;;;9.73;5.40;;;4.60;99.90;;;;;;5014706;28;20117;-73
2021/03/22 08:29:53;;;;;;;12.35;4.93;;;4.80;99.90;;;;;;5013565;28;20488;-73
2021/03/22 08:32:37;;;;;;;12.75;5.38;;;4.90;99.90;;;;;;5006444;28;20156;-74
2021/03/22 08:35:19;;;;;;;9.35;3.97;;;5.20;99.90;;;;;;5012924;28;20066;-74
2021/03/22 08:38:14;;;;;;;9.68;3.83;;;5.20;99.90;;;;;;5011624;28;20045;-73
2021/03/22 08:40:50;;;;;;;8.23;3.30;;;5.30;99.90;;;;;;5003810;28;20038;-73
2021/03/22 08:43:35;;;;;;;8.85;3.60;;;5.50;99.90;;;;;;5007413;28;20033;-73
2021/03/22 08:46:26;;;;;;;6.25;3.65;;;5.10;99.90;;;;;;5014042;28;20032;-73
2021/03/22 08:48:51;;;;;;;8.25;3.78;;;5.20;99.90;;;;;;5008409;28;20042;-76
2021/03/22 08:51:29;;;;;;;8.05;4.10;;;5.60;99.90;;;;;;5012397;28;20032;-76
2021/03/22 08:53:58;;;;;;;6.93;3.72;;;5.50;99.90;;;;;;5009942;28;20033;-76
2021/03/22 08:56:33;;;;;;;7.50;4.13;;;5.80;99.90;;;;;;5013184;28;20028;-76
2021/03/22 08:59:02;;;;;;;9.20;5.10;;;5.50;99.90;;;;;;5010460;28;20045;-76
2021/03/22 09:01:32;;;;;;;7.63;4.38;;;5.70;99.90;;;;;;5015354;28;20022;-75
2021/03/22 09:04:29;;;;;;;9.30;4.60;;;5.40;99.90;;;;;;5008723;28;20030;-73
2021/03/22 09:07:10;;;;;;;10.75;5.40;;;5.60;99.90;;;;;;4996186;28;20069;-76
2021/03/22 09:09:47;;;;;;;10.65;5.05;;;5.70;99.90;;;;;;5003395;28;20124;-77
2021/03/22 09:12:43;;;;;;;11.52;5.68;;;5.70;99.90;;;;;;5003486;28;20533;-76
2021/03/22 09:15:29;;;;;;;10.07;5.68;;;5.60;99.90;;;;;;5012932;28;20073;-76
2021/03/22 09:18:00;;;;;;;13.52;6.28;;;5.70;99.90;;;;;;5004650;28;20049;-76
2021/03/22 09:20:32;;;;;;;12.00;5.95;;;5.80;99.90;;;;;;5005028;28;20034;-77
2021/03/22 09:23:16;;;;;;;11.63;6.05;;;5.80;99.90;;;;;;5013179;28;20476;-76
2021/03/22 09:25:53;;;;;;;11.45;6.03;;;5.80;99.90;;;;;;5014723;28;20042;-76
2021/03/22 09:28:31;;;;;;;9.05;5.97;;;6.40;99.90;;;;;;5009813;28;20476;-77
2021/03/22 09:31:16;;;;;;;14.10;6.75;;;6.90;99.90;;;;;;5009195;28;20026;-77
2021/03/22 09:33:55;;;;;;;13.45;6.68;;;7.30;99.90;;;;;;5005327;28;20035;-76
2021/03/22 09:36:32;;;;;;;12.23;6.57;;;7.50;99.90;;;;;;5011029;28;20022;-73
2021/03/22 09:39:01;;;;;;;15.65;6.93;;;7.60;99.90;;;;;;5013890;28;20033;-73
2021/03/22 09:41:59;;;;;;;14.60;6.38;;;7.60;99.90;;;;;;5007107;28;20022;-77
2021/03/22 09:44:31;;;;;;;11.98;7.00;;;7.80;99.90;;;;;;5014643;28;20048;-77
2021/03/22 09:47:19;;;;;;;13.32;7.10;;;7.60;99.90;;;;;;5007523;28;20117;-73
2021/03/22 09:50:00;;;;;;;12.00;6.25;;;7.90;99.90;;;;;;5007150;28;20537;-74
2021/03/22 09:52:39;;;;;;;11.25;6.85;;;8.10;99.90;;;;;;5005174;28;20032;-74
2021/03/22 09:55:25;;;;;;;16.65;8.55;;;8.30;99.90;;;;;;5008987;28;20067;-73
2021/03/22 09:57:56;;;;;;;11.30;6.90;;;8.50;99.90;;;;;;5008918;28;20033;-74
2021/03/22 10:00:27;;;;;;;11.32;6.70;;;8.70;99.90;;;;;;5008458;28;20509;-73
2021/03/22 10:03:12;;;;;;;12.55;7.30;;;9.00;99.70;;;;;;5011656;28;20519;-73
2021/03/22 10:05:57;;;;;;;13.43;6.40;;;9.10;98.00;;;;;;5010519;28;20360;-75
2021/03/22 10:08:25;;;;;;;11.05;6.65;;;9.10;97.30;;;;;;5012469;28;20404;-75
2021/03/22 10:10:55;;;;;;;9.65;6.32;;;9.10;97.30;;;;;;5006313;28;20511;-72
2021/03/22 10:13:40;;;;;;;13.55;7.45;;;8.90;96.70;;;;;;5014500;28;20033;-77
2021/03/22 10:16:18;;;;;;;12.35;6.53;;;8.90;97.20;;;;;;5011713;28;20029;-74
2021/03/22 10:18:54;;;;;;;14.27;7.35;;;8.90;96.30;;;;;;5009122;28;20499;-77
2021/03/22 10:21:22;;;;;;;12.68;7.30;;;9.00;96.00;;;;;;5010594;28;21220;-73
2021/03/22 10:23:53;;;;;;;12.75;6.10;;;8.80;96.40;;;;;;5008652;28;20045;-77
2021/03/22 10:26:37;;;;;;;13.10;6.75;;;9.10;96.20;;;;;;5012404;28;20037;-77
2021/03/22 10:29:14;;;;;;;12.57;6.43;;;9.40;97.20;;;;;;5013810;28;20072;-74
2021/03/22 10:31:41;;;;;;;11.98;6.25;;;9.20;94.80;;;;;;5009657;28;20033;-77
2021/03/22 10:34:22;;;;;;;11.95;6.88;;;8.70;94.50;;;;;;5010100;28;20091;-73
2021/03/22 10:36:49;;;;;;;11.57;6.18;;;9.00;95.60;;;;;;5012868;28;20034;-73
2021/03/22 10:39:30;;;;;;;12.07;6.43;;;8.80;95.40;;;;;;5011834;28;20109;-73
2021/03/22 10:41:55;;;;;;;12.57;6.63;;;9.00;95.30;;;;;;5006727;28;20627;-74
2021/03/22 10:44:28;;;;;;;9.90;6.13;;;9.10;95.40;;;;;;5011728;28;20145;-73
2021/03/22 10:47:10;;;;;;;;;;;9.60;94.80;;;;;;5008488;28;20489;-73
2021/03/22 10:49:36;;;;;;;12.77;6.43;;;9.40;93.30;;;;;;5006346;28;20357;-74
2021/03/22 10:52:04;;;;;;;11.90;6.35;;;9.70;94.10;;;;;;5011916;28;20038;-74
2021/03/22 10:54:45;;;;;;;9.88;5.47;;;9.70;93.80;;;;;;5008414;28;20037;-74
2021/03/22 10:57:18;;;;;;;13.20;6.63;;;9.70;93.70;;;;;;5011933;28;20069;-74
2021/03/22 10:59:49;;;;;;;11.95;6.55;;;9.60;93.20;;;;;;5003258;28;20134;-73
2021/03/22 11:02:35;;;;;;;13.13;6.60;;;10.10;93.60;;;;;;5009650;28;20831;-73
2021/03/22 11:05:10;;;;;;;13.18;6.72;;;10.50;92.60;;;;;;5011613;28;20064;-73
2021/03/22 11:07:36;;;;;;;12.20;6.13;;;10.60;90.10;;;;;;5010797;28;20033;-73
2021/03/22 11:10:13;;;;;;;11.95;5.93;;;10.20;90.90;;;;;;4998007;28;20025;-76
2021/03/22 11:12:43;;;;;;;11.13;6.13;;;10.50;91.80;;;;;;5012076;28;20041;-73
2021/03/22 11:15:29;;;;;;;11.48;6.85;;;10.60;90.40;;;;;;5018670;28;20033;-73
2021/03/22 11:17:56;;;;;;;10.38;6.60;;;10.80;91.30;;;;;;5008835;28;20053;-77
2021/03/22 11:20:23;;;;;;;13.10;6.95;;;10.70;90.80;;;;;;5005565;28;20034;-73
2021/03/22 11:22:50;;;;;;;11.40;6.15;;;10.00;89.10;;;;;;5007245;28;20044;-73
2021/03/22 11:25:34;;;;;;;12.93;6.32;;;10.00;91.80;;;;;;5007489;28;20038;-73
2021/03/22 11:28:00;;;;;;;11.57;6.47;;;10.50;91.20;;;;;;5002748;28;20053;-73
2021/03/22 11:30:57;;;;;;;11.82;6.63;;;10.50;89.30;;;;;;5008463;28;20740;-73
2021/03/22 11:33:27;;;;;;;13.45;6.18;;;10.70;90.50;;;;;;5008850;28;20065;-73
2021/03/22 11:36:14;;;;;;;15.85;6.75;;;10.80;87.90;;;;;;5005098;28;20357;-73
2021/03/22 11:38:55;;;;;;;10.73;6.00;;;10.10;88.20;;;;;;5015666;28;20081;-73
2021/03/22 11:41:40;;;;;;;14.93;6.25;;;10.60;89.00;;;;;;5008403;28;20034;-73
2021/03/22 11:44:05;;;;;;;16.80;6.75;;;11.00;89.50;;;;;;5012598;28;20037;-74
2021/03/22 11:46:32;;;;;;;24.30;6.45;;;10.60;87.10;;;;;;5000583;28;20030;-73
2021/03/22 11:48:58;;;;;;;15.20;5.63;;;10.60;86.60;;;;;;5005359;28;20045;-76
2021/03/22 11:51:23;;;;;;;13.85;6.47;;;10.50;87.60;;;;;;5017881;28;20034;-73
2021/03/22 11:54:08;;;;;;;16.40;6.68;;;11.00;89.10;;;;;;5013907;28;20068;-73
2021/03/22 11:56:39;;;;;;;13.20;5.55;;;10.50;85.90;;;;;;5005654;28;20029;-74
2021/03/22 11:59:20;;;;;;;13.68;6.35;;;10.60;87.20;;;;;;5007238;28;20503;-74
2021/03/22 12:02:00;;;;;;;12.23;6.20;;;10.80;88.20;;;;;;4996801;28;20475;-77
2021/03/22 12:04:26;;;;;;;10.48;4.93;;;11.10;87.60;;;;;;5005048;28;20747;-74
2021/03/22 12:07:09;;;;;;;13.20;5.78;;;11.20;86.70;;;;;;5006460;28;20076;-74
2021/03/22 12:09:38;;;;;;;12.30;5.85;;;11.30;85.90;;;;;;5001664;28;20038;-74
2021/03/22 12:12:12;;;;;;;11.50;5.93;;;11.30;84.70;;;;;;5010334;28;20559;-74
2021/03/22 12:14:37;;;;;;;14.10;5.07;;;11.10;83.30;;;;;;5009402;28;20041;-74
2021/03/22 12:17:09;;;;;;;12.63;6.05;;;11.40;87.60;;;;;;5010702;28;20088;-74
2021/03/22 12:19:39;;;;;;;13.27;6.07;;;11.20;82.60;;;;;;5011745;28;20065;-74
2021/03/22 12:22:06;;;;;;;15.13;6.00;;;11.10;84.10;;;;;;5013023;28;20076;-74
2021/03/22 12:24:31;;;;;;;14.80;6.80;;;10.20;83.80;;;;;;5013944;28;20668;-74
2021/03/22 12:26:57;;;;;;;15.02;5.13;;;10.40;86.90;;;;;;5014222;28;20032;-74
2021/03/22 12:29:23;;;;;;;16.10;6.28;;;10.90;86.00;;;;;;5009115;28;20034;-74
2021/03/22 12:31:50;;;;;;;15.38;5.55;;;10.70;84.10;;;;;;5011685;28;20498;-74
2021/03/22 12:34:21;;;;;;;22.27;6.18;;;10.90;85.80;;;;;;5014483;28;20694;-74
2021/03/22 12:36:49;;;;;;;16.17;5.63;;;10.50;82.70;;;;;;5014655;28;20034;-74
2021/03/22 12:39:17;;;;;;;13.63;5.90;;;10.50;85.20;;;;;;5019023;28;20041;-74
2021/03/22 12:41:44;;;;;;;14.23;4.97;;;10.90;84.30;;;;;;5010590;28;20383;-76
2021/03/22 12:44:09;;;;;;;13.82;6.07;;;10.80;83.80;;;;;;5011839;28;20052;-74
2021/03/22 12:46:35;;;;;;;11.50;5.40;;;11.00;83.30;;;;;;5009542;28;20061;-74
2021/03/22 12:49:00;;;;;;;18.55;5.88;;;10.80;81.40;;;;;;5013812;28;20045;-74
2021/03/22 12:51:26;;;;;;;21.08;6.28;;;11.00;83.10;;;;;;5017576;28;20032;-74
2021/03/22 12:53:52;;;;;;;13.35;5.70;;;10.70;82.30;;;;;;5016686;28;20061;-76
2021/03/22 12:56:23;;;;;;;14.73;5.22;;;10.50;84.00;;;;;;5018147;28;20041;-74
2021/03/22 12:58:49;;;;;;;18.00;5.93;;;10.80;82.90;;;;;;5009684;28;20689;-74
2021/03/22 13:01:15;;;;;;;19.08;6.50;;;11.00;83.60;;;;;;5008447;28;20040;-74
2021/03/22 13:03:42;;;;;;;14.60;5.53;;;10.50;81.60;;;;;;5008688;28;20045;-74
2021/03/22 13:06:07;;;;;;;10.27;4.72;;;10.70;82.50;;;;;;5011918;28;20036;-75
2021/03/22 13:08:33;;;;;;;12.80;5.65;;;10.70;82.00;;;;;;5012796;28;20049;-76
2021/03/22 13:10:59;;;;;;;13.13;5.45;;;10.80;81.50;;;;;;5013915;28;20026;-74
2021/03/22 13:13:25;;;;;;;13.40;4.82;;;11.10;81.10;;;;;;5019080;28;20040;-74
2021/03/22 13:15:53;;;;;;;15.75;5.97;;;10.90;80.00;;;;;;5011850;28;20037;-74
2021/03/22 13:18:25;;;;;;;14.57;5.93;;;11.10;80.40;;;;;;5027773;28;20171;-74